Time;durP1;ratioP1;P1;durP2;ratioP2;P2;SDS_P1;SDS_P2;PMS_P1;PMS_P2;Temp;Humidity;BMP_temperature;BMP_pressure;BME280_temperature;BME280_humidity;BME280_pressure;Samples;Min_cycle;Max_cycle;Signal;HPM_P1;HPM_P2
2020/12/11 00:01:36;;;;;;;9.30;7.38;;;;;;;;;;5076238;28;20186;-52
2020/12/11 00:04:02;;;;;;;10.02;7.70;;;;;;;;;;5075949;28;20187;-52
2020/12/11 00:06:28;;;;;;;7.43;6.63;;;;;;;;;;5076011;28;20201;-52
2020/12/11 00:08:54;;;;;;;11.25;7.28;;;;;;;;;;5088766;28;20173;-52
2020/12/11 00:11:30;;;;;;;9.20;6.93;;;;;;;;;;5096025;28;20594;-52
2020/12/11 00:13:57;;;;;;;9.00;7.40;;;;;;;;;;5075937;28;20166;-52
2020/12/11 00:16:23;;;;;;;10.15;6.90;;;;;;;;;;5075778;28;20171;-52
2020/12/11 00:18:49;;;;;;;8.15;6.93;;;;;;;;;;5086514;28;20257;-52
2020/12/11 00:21:15;;;;;;;8.35;6.80;;;;;;;;;;5096309;28;20177;-52
2020/12/11 00:23:41;;;;;;;9.30;6.78;;;;;;;;;;5096104;28;20231;-52
2020/12/11 00:26:07;;;;;;;10.02;7.30;;;;;;;;;;5095215;28;20210;-52
2020/12/11 00:28:33;;;;;;;7.68;6.45;;;;;;;;;;5096222;28;20706;-52
2020/12/11 00:30:59;;;;;;;9.60;6.63;;;;;;;;;;5095715;28;20166;-52
2020/12/11 00:33:26;;;;;;;8.63;6.63;;;;;;;;;;5096282;28;20218;-52
2020/12/11 00:35:52;;;;;;;10.43;6.78;;;;;;;;;;5095586;28;20166;-52
2020/12/11 00:38:19;;;;;;;9.30;6.90;;;;;;;;;;5095652;28;20174;-52
2020/12/11 00:40:45;;;;;;;8.57;6.50;;;;;;;;;;5096796;28;20182;-52
2020/12/11 00:43:11;;;;;;;8.40;6.57;;;;;;;;;;5099707;28;20209;-52
2020/12/11 00:45:37;;;;;;;7.57;6.20;;;;;;;;;;5095368;28;20576;-52
2020/12/11 00:48:03;;;;;;;8.10;5.80;;;;;;;;;;5095569;28;20170;-52
2020/12/11 00:50:29;;;;;;;7.53;6.10;;;;;;;;;;5095708;28;20176;-52
2020/12/11 00:52:55;;;;;;;7.75;6.43;;;;;;;;;;5098062;28;20260;-52
2020/12/11 00:55:21;;;;;;;7.57;6.22;;;;;;;;;;5099160;28;20176;-52
2020/12/11 00:57:48;;;;;;;6.80;6.00;;;;;;;;;;5098588;28;20198;-52
2020/12/11 01:00:17;;;;;;;7.22;5.68;;;;;;;;;;5099546;28;20206;-52
2020/12/11 01:02:43;;;;;;;6.97;5.93;;;;;;;;;;5099575;28;20166;-52
2020/12/11 01:05:09;;;;;;;6.68;5.53;;;;;;;;;;5098466;28;20559;-52
2020/12/11 01:07:35;;;;;;;7.75;6.00;;;;;;;;;;5098087;28;20203;-52
2020/12/11 01:10:01;;;;;;;6.65;5.57;;;;;;;;;;5095225;28;20548;-52
2020/12/11 01:12:27;;;;;;;6.05;5.45;;;;;;;;;;5099703;28;20467;-52
2020/12/11 01:14:53;;;;;;;6.57;5.50;;;;;;;;;;5086726;28;20174;-52
2020/12/11 01:17:20;;;;;;;7.22;5.55;;;;;;;;;;5098960;28;20170;-52
2020/12/11 01:19:46;;;;;;;7.18;5.68;;;;;;;;;;5098954;28;20186;-52
2020/12/11 01:22:12;;;;;;;8.45;6.20;;;;;;;;;;5098125;28;20247;-52
2020/12/11 01:24:39;;;;;;;6.28;5.22;;;;;;;;;;5087306;28;20194;-52
2020/12/11 01:27:05;;;;;;;6.47;5.28;;;;;;;;;;5088976;28;20209;-52
2020/12/11 01:29:31;;;;;;;6.13;5.50;;;;;;;;;;5098956;28;20219;-52
2020/12/11 01:31:57;;;;;;;5.95;5.35;;;;;;;;;;5095965;28;20178;-52
2020/12/11 01:34:23;;;;;;;6.68;5.82;;;;;;;;;;5078040;28;20244;-52
2020/12/11 01:36:49;;;;;;;7.00;5.65;;;;;;;;;;5088476;28;20177;-52
2020/12/11 01:39:15;;;;;;;8.00;5.88;;;;;;;;;;5087456;28;20182;-52
2020/12/11 01:41:41;;;;;;;6.72;5.45;;;;;;;;;;5093354;28;20189;-52
2020/12/11 01:44:08;;;;;;;6.22;5.30;;;;;;;;;;5077666;28;20182;-52
2020/12/11 01:46:38;;;;;;;7.43;5.88;;;;;;;;;;5078326;28;20198;-52
2020/12/11 01:49:04;;;;;;;6.60;5.20;;;;;;;;;;5078504;28;20192;-52
2020/12/11 01:51:31;;;;;;;6.35;5.30;;;;;;;;;;5092205;28;20178;-52
2020/12/11 01:53:59;;;;;;;5.88;4.90;;;;;;;;;;5098339;28;20170;-52
2020/12/11 01:56:26;;;;;;;7.85;5.50;;;;;;;;;;5098304;28;20174;-52
2020/12/11 01:59:00;;;;;;;5.25;4.75;;;;;;;;;;5098312;28;20560;-52
2020/12/11 02:01:26;;;;;;;5.65;5.05;;;;;;;;;;5098206;28;20212;-52
2020/12/11 02:03:52;;;;;;;6.72;5.47;;;;;;;;;;5096060;28;20185;-52
2020/12/11 02:06:18;;;;;;;6.50;5.38;;;;;;;;;;5097692;28;20201;-52
2020/12/11 02:08:44;;;;;;;5.55;4.93;;;;;;;;;;5108244;28;20199;-52
2020/12/11 02:11:20;;;;;;;6.25;4.95;;;;;;;;;;5107927;28;20194;-52
2020/12/11 02:13:46;;;;;;;5.07;4.57;;;;;;;;;;5097955;28;20177;-52
2020/12/11 02:16:12;;;;;;;5.43;4.93;;;;;;;;;;5095559;28;20199;-52
2020/12/11 02:18:41;;;;;;;6.88;5.32;;;;;;;;;;5089881;28;20182;-52
2020/12/11 02:21:08;;;;;;;6.05;5.25;;;;;;;;;;5089198;28;20227;-52
2020/12/11 02:23:34;;;;;;;5.68;4.40;;;;;;;;;;5080645;28;20194;-52
2020/12/11 02:26:00;;;;;;;5.55;4.95;;;;;;;;;;5077206;28;20246;-52
2020/12/11 02:28:30;;;;;;;4.88;4.28;;;;;;;;;;5097901;28;20164;-52
2020/12/11 02:30:57;;;;;;;4.95;4.45;;;;;;;;;;5097346;28;20185;-52
2020/12/11 02:33:23;;;;;;;5.28;4.75;;;;;;;;;;5096937;28;20260;-52
2020/12/11 02:35:49;;;;;;;5.55;4.93;;;;;;;;;;5096973;28;20186;-51
2020/12/11 02:38:15;;;;;;;5.72;5.05;;;;;;;;;;5078464;28;20190;-51
2020/12/11 02:40:51;;;;;;;6.22;4.47;;;;;;;;;;5084968;28;20178;-51
2020/12/11 02:43:17;;;;;;;5.45;4.28;;;;;;;;;;5097199;28;20543;-51
2020/12/11 02:45:45;;;;;;;5.65;4.57;;;;;;;;;;5096258;28;20578;-51
2020/12/11 02:48:11;;;;;;;5.00;4.50;;;;;;;;;;5096702;28;20209;-51
2020/12/11 02:50:37;;;;;;;5.65;4.88;;;;;;;;;;5097186;28;20570;-51
2020/12/11 02:53:03;;;;;;;5.53;4.43;;;;;;;;;;5097254;28;20188;-51
2020/12/11 02:55:29;;;;;;;5.38;4.60;;;;;;;;;;5096964;28;20172;-51
2020/12/11 02:57:55;;;;;;;5.10;4.45;;;;;;;;;;5096400;28;20181;-51
2020/12/11 03:00:21;;;;;;;5.00;4.50;;;;;;;;;;5095764;28;20556;-51
2020/12/11 03:02:47;;;;;;;5.53;4.68;;;;;;;;;;5096255;28;20180;-51
2020/12/11 03:05:13;;;;;;;4.93;4.38;;;;;;;;;;5096721;28;20211;-51
2020/12/11 03:07:39;;;;;;;5.25;4.40;;;;;;;;;;5096174;28;20206;-51
2020/12/11 03:10:05;;;;;;;4.82;4.18;;;;;;;;;;5096649;28;20174;-51
2020/12/11 03:12:31;;;;;;;5.25;4.50;;;;;;;;;;5083211;28;20261;-51
2020/12/11 03:14:57;;;;;;;4.70;4.15;;;;;;;;;;5075608;28;20181;-51
2020/12/11 03:17:23;;;;;;;4.70;4.22;;;;;;;;;;5078019;28;20178;-51
2020/12/11 03:19:50;;;;;;;4.32;3.92;;;;;;;;;;5077647;28;20509;-51
2020/12/11 03:22:16;;;;;;;5.68;4.60;;;;;;;;;;5076946;28;20197;-51
2020/12/11 03:24:42;;;;;;;4.82;4.30;;;;;;;;;;5076132;28;20190;-51
2020/12/11 03:27:08;;;;;;;5.60;4.22;;;;;;;;;;5084414;28;20201;-51
2020/12/11 03:29:34;;;;;;;4.75;4.25;;;;;;;;;;5096874;28;20177;-51
2020/12/11 03:32:00;;;;;;;4.75;4.20;;;;;;;;;;5092048;28;20503;-51
2020/12/11 03:34:26;;;;;;;4.60;4.10;;;;;;;;;;5096255;28;20176;-51
2020/12/11 03:36:52;;;;;;;4.40;4.00;;;;;;;;;;5096074;28;20188;-51
2020/12/11 03:39:18;;;;;;;4.00;3.60;;;;;;;;;;5096839;28;20174;-51
2020/12/11 03:41:44;;;;;;;5.50;4.30;;;;;;;;;;5101006;28;20184;-51
2020/12/11 03:44:10;;;;;;;4.75;4.20;;;;;;;;;;5116352;28;20171;-51
2020/12/11 03:46:36;;;;;;;3.97;3.60;;;;;;;;;;5095282;28;20231;-51
2020/12/11 03:49:02;;;;;;;4.30;3.90;;;;;;;;;;5076621;28;20167;-51
2020/12/11 03:51:28;;;;;;;4.43;3.97;;;;;;;;;;5091338;28;20198;-51
2020/12/11 03:53:54;;;;;;;4.63;4.13;;;;;;;;;;5088753;28;20470;-51
2020/12/11 03:56:20;;;;;;;5.00;4.50;;;;;;;;;;5077915;28;20184;-52
2020/12/11 03:58:46;;;;;;;4.32;3.78;;;;;;;;;;5076332;28;20608;-51
2020/12/11 04:01:13;;;;;;;4.13;3.70;;;;;;;;;;5088287;28;20198;-51
2020/12/11 04:03:39;;;;;;;4.82;4.32;;;;;;;;;;5096273;28;20178;-51
2020/12/11 04:06:06;;;;;;;4.07;3.67;;;;;;;;;;5095937;28;20276;-51
2020/12/11 04:08:32;;;;;;;4.18;3.70;;;;;;;;;;5095605;28;20174;-51
2020/12/11 04:10:58;;;;;;;4.25;3.85;;;;;;;;;;5088612;28;20191;-51
2020/12/11 04:13:24;;;;;;;4.60;3.72;;;;;;;;;;5076252;28;20202;-51
2020/12/11 04:15:50;;;;;;;4.53;3.75;;;;;;;;;;5075598;28;20227;-51
2020/12/11 04:18:16;;;;;;;5.10;3.67;;;;;;;;;;5092824;28;20620;-52
2020/12/11 04:20:42;;;;;;;4.60;4.20;;;;;;;;;;5096130;28;20182;-52
2020/12/11 04:23:08;;;;;;;3.65;3.30;;;;;;;;;;5095875;28;20193;-51
2020/12/11 04:25:34;;;;;;;4.13;3.80;;;;;;;;;;5095542;28;20174;-51
2020/12/11 04:28:00;;;;;;;3.72;3.42;;;;;;;;;;5099640;28;20186;-51
2020/12/11 04:30:26;;;;;;;4.35;3.88;;;;;;;;;;5092692;28;20215;-51
2020/12/11 04:32:52;;;;;;;4.40;3.80;;;;;;;;;;5100106;28;20551;-51
2020/12/11 04:35:18;;;;;;;3.92;3.53;;;;;;;;;;5099596;28;20222;-51
2020/12/11 04:37:44;;;;;;;4.28;3.35;;;;;;;;;;5099784;28;20184;-51
2020/12/11 04:40:10;;;;;;;4.10;3.70;;;;;;;;;;5099589;28;20255;-51
2020/12/11 04:42:39;;;;;;;3.97;3.53;;;;;;;;;;5099708;28;20231;-51
2020/12/11 04:45:05;;;;;;;3.72;3.42;;;;;;;;;;5098749;28;20253;-51
2020/12/11 04:47:31;;;;;;;4.00;3.60;;;;;;;;;;5098949;28;20347;-51
2020/12/11 04:49:57;;;;;;;3.67;3.38;;;;;;;;;;5099411;28;20166;-52
2020/12/11 04:52:28;;;;;;;4.05;3.53;;;;;;;;;;5086745;28;20186;-52
2020/12/11 04:54:54;;;;;;;4.00;3.60;;;;;;;;;;5078819;28;20484;-52
2020/12/11 04:57:26;;;;;;;3.78;3.47;;;;;;;;;;5090401;28;20170;-52
2020/12/11 04:59:52;;;;;;;3.72;3.30;;;;;;;;;;5099373;28;20544;-52
2020/12/11 05:02:18;;;;;;;3.50;3.20;;;;;;;;;;5079691;28;20248;-52
2020/12/11 05:04:44;;;;;;;3.63;3.33;;;;;;;;;;5079471;28;20214;-51
2020/12/11 05:07:10;;;;;;;3.85;3.30;;;;;;;;;;5088297;28;20603;-51
2020/12/11 05:09:36;;;;;;;3.28;2.97;;;;;;;;;;5099279;28;20550;-51
2020/12/11 05:12:13;;;;;;;3.45;3.15;;;;;;;;;;5099015;28;20174;-51
2020/12/11 05:14:39;;;;;;;4.28;3.42;;;;;;;;;;5098096;28;20405;-52
2020/12/11 05:17:06;;;;;;;3.38;3.05;;;;;;;;;;5094220;28;20228;-52
2020/12/11 05:19:33;;;;;;;3.40;3.10;;;;;;;;;;5078922;28;20213;-51
2020/12/11 05:22:12;;;;;;;3.72;3.30;;;;;;;;;;5078714;28;20246;-52
2020/12/11 05:24:48;;;;;;;3.88;3.35;;;;;;;;;;5096228;28;20264;-52
2020/12/11 05:27:27;;;;;;;5.25;3.40;;;;;;;;;;5088221;28;20205;-51
2020/12/11 05:29:53;;;;;;;4.43;3.33;;;;;;;;;;5098962;28;20194;-51
2020/12/11 05:32:39;;;;;;;6.95;3.80;;;;;;;;;;5097561;28;20181;-51
2020/12/11 05:35:07;;;;;;;7.40;3.50;;;;;;;;;;5098390;28;20170;-51
2020/12/11 05:37:44;;;;;;;6.45;3.72;;;;;;;;;;5097101;28;20178;-51
2020/12/11 05:40:17;;;;;;;4.70;3.47;;;;;;;;;;5098642;28;20226;-51
2020/12/11 05:42:43;;;;;;;7.90;3.72;;;;;;;;;;5083785;28;20240;-51
2020/12/11 05:45:18;;;;;;;5.03;3.72;;;;;;;;;;5080994;28;20604;-52
2020/12/11 05:47:44;;;;;;;4.47;3.40;;;;;;;;;;5085097;28;20230;-52
2020/12/11 05:50:19;;;;;;;5.03;3.47;;;;;;;;;;5078319;28;20223;-52
2020/12/11 05:52:47;;;;;;;4.07;3.08;;;;;;;;;;5090357;28;20166;-52
2020/12/11 05:55:18;;;;;;;5.20;3.70;;;;;;;;;;5097902;28;20295;-52
2020/12/11 05:57:44;;;;;;;5.05;3.17;;;;;;;;;;5097650;28;20204;-52
2020/12/11 06:00:10;;;;;;;3.72;3.30;;;;;;;;;;5086667;28;20545;-52
2020/12/11 06:02:37;;;;;;;4.25;3.08;;;;;;;;;;5078036;28;20167;-52
2020/12/11 06:05:02;;;;;;;7.22;3.67;;;;;;;;;;5077545;28;20170;-52
2020/12/11 06:07:29;;;;;;;4.22;3.03;;;;;;;;;;5094238;28;20205;-52
2020/12/11 06:09:55;;;;;;;4.32;3.00;;;;;;;;;;5098156;28;20758;-52
2020/12/11 06:12:27;;;;;;;4.82;3.50;;;;;;;;;;5098268;28;20562;-52
2020/12/11 06:15:12;;;;;;;5.25;3.30;;;;;;;;;;5086088;28;20475;-52
2020/12/11 06:17:49;;;;;;;3.97;3.25;;;;;;;;;;5090609;28;20188;-52
2020/12/11 06:20:17;;;;;;;6.65;3.28;;;;;;;;;;5097707;28;20443;-52
2020/12/11 06:22:46;;;;;;;4.78;3.38;;;;;;;;;;5097111;28;21061;-52
2020/12/11 06:25:28;;;;;;;3.53;3.00;;;;;;;;;;5088364;28;20231;-52
2020/12/11 06:27:55;;;;;;;4.95;2.97;;;;;;;;;;5082494;28;20259;-52
2020/12/11 06:30:31;;;;;;;4.80;3.40;;;;;;;;;;5077659;28;20167;-52
2020/12/11 06:32:57;;;;;;;3.30;2.90;;;;;;;;;;5077478;28;20178;-52
2020/12/11 06:35:24;;;;;;;4.55;3.47;;;;;;;;;;5076925;28;20200;-52
2020/12/11 06:37:50;;;;;;;4.38;3.05;;;;;;;;;;5081844;28;20194;-52
2020/12/11 06:40:16;;;;;;;3.92;2.88;;;;;;;;;;5097087;28;20233;-52
2020/12/11 06:42:43;;;;;;;3.78;3.20;;;;;;;;;;5098988;28;20548;-52
2020/12/11 06:45:15;;;;;;;3.10;2.80;;;;;;;;;;5088981;28;20201;-52
2020/12/11 06:47:47;;;;;;;3.20;2.80;;;;;;;;;;5075798;28;20209;-52
2020/12/11 06:50:13;;;;;;;3.13;2.83;;;;;;;;;;5074732;28;20159;-52
2020/12/11 06:52:39;;;;;;;4.97;2.80;;;;;;;;;;5080714;28;20443;-52
2020/12/11 06:55:05;;;;;;;2.92;2.65;;;;;;;;;;5091794;28;20170;-52
2020/12/11 06:57:32;;;;;;;4.47;2.95;;;;;;;;;;5076517;28;20174;-52
2020/12/11 06:59:58;;;;;;;4.32;3.13;;;;;;;;;;5086519;28;20182;-52
2020/12/11 07:02:25;;;;;;;3.20;2.75;;;;;;;;;;5097315;28;20177;-52
2020/12/11 07:04:51;;;;;;;4.72;2.80;;;;;;;;;;5096777;28;20223;-52
2020/12/11 07:07:22;;;;;;;3.20;2.90;;;;;;;;;;5097318;28;20208;-52
2020/12/11 07:09:51;;;;;;;3.58;2.72;;;;;;;;;;5097368;28;20471;-52
2020/12/11 07:12:17;;;;;;;4.03;2.90;;;;;;;;;;5095991;28;20172;-52
2020/12/11 07:14:44;;;;;;;2.70;2.40;;;;;;;;;;5094570;28;20181;-52
2020/12/11 07:17:10;;;;;;;3.65;3.05;;;;;;;;;;5095903;28;20192;-52
2020/12/11 07:19:36;;;;;;;3.70;3.10;;;;;;;;;;5096104;28;20659;-52
2020/12/11 07:22:03;;;;;;;2.72;2.53;;;;;;;;;;5096391;28;20174;-52
2020/12/11 07:24:30;;;;;;;3.97;2.90;;;;;;;;;;5095449;28;20460;-52
2020/12/11 07:27:03;;;;;;;2.63;2.42;;;;;;;;;;5076417;28;20641;-52
2020/12/11 07:29:29;;;;;;;2.50;2.30;;;;;;;;;;5076680;28;20167;-52
2020/12/11 07:31:56;;;;;;;3.10;2.45;;;;;;;;;;5076707;28;20182;-52
2020/12/11 07:34:26;;;;;;;2.75;2.55;;;;;;;;;;5076230;28;20162;-52
2020/12/11 07:36:56;;;;;;;3.03;2.60;;;;;;;;;;5076602;28;20674;-52
2020/12/11 07:39:23;;;;;;;2.50;2.30;;;;;;;;;;5076251;28;20182;-52
2020/12/11 07:41:49;;;;;;;3.90;2.75;;;;;;;;;;5083591;28;20427;-53
2020/12/11 07:44:28;;;;;;;2.72;2.40;;;;;;;;;;5075608;28;20548;-52
2020/12/11 07:46:55;;;;;;;2.67;2.47;;;;;;;;;;5077007;28;20456;-52
2020/12/11 07:49:21;;;;;;;5.05;2.65;;;;;;;;;;5076555;28;20201;-52
2020/12/11 07:51:50;;;;;;;3.38;2.90;;;;;;;;;;5080512;28;20194;-52
2020/12/11 07:54:17;;;;;;;3.78;2.50;;;;;;;;;;5096159;28;20178;-52
2020/12/11 07:56:43;;;;;;;3.00;2.58;;;;;;;;;;5077656;28;20170;-52
2020/12/11 07:59:13;;;;;;;3.85;2.72;;;;;;;;;;5076409;28;20166;-52
2020/12/11 08:01:39;;;;;;;3.92;2.63;;;;;;;;;;5079027;28;20166;-52
2020/12/11 08:04:05;;;;;;;2.63;2.35;;;;;;;;;;5086855;28;20540;-52
2020/12/11 08:06:31;;;;;;;2.55;2.30;;;;;;;;;;5085693;28;20234;-52
2020/12/11 08:08:57;;;;;;;3.80;3.08;;;;;;;;;;5081028;28;20174;-52
2020/12/11 08:11:24;;;;;;;3.58;2.40;;;;;;;;;;5083041;28;20186;-52
2020/12/11 08:14:00;;;;;;;2.60;2.40;;;;;;;;;;5084728;28;20190;-52
2020/12/11 08:16:28;;;;;;;2.40;2.20;;;;;;;;;;5098084;28;20205;-52
2020/12/11 08:18:54;;;;;;;3.83;2.30;;;;;;;;;;5099881;28;20435;-52
2020/12/11 08:21:30;;;;;;;2.80;2.25;;;;;;;;;;5100264;28;20195;-52
2020/12/11 08:23:56;;;;;;;2.80;2.30;;;;;;;;;;5085083;28;20198;-52
2020/12/11 08:26:23;;;;;;;4.60;2.38;;;;;;;;;;5077812;28;20217;-52
2020/12/11 08:29:03;;;;;;;2.78;2.40;;;;;;;;;;5078326;28;20171;-52
2020/12/11 08:31:31;;;;;;;3.22;2.58;;;;;;;;;;5077900;28;20454;-52
2020/12/11 08:34:01;;;;;;;2.85;2.40;;;;;;;;;;5078080;28;20170;-52
2020/12/11 08:36:28;;;;;;;2.92;2.63;;;;;;;;;;5077717;28;20167;-52
2020/12/11 08:39:04;;;;;;;2.67;2.30;;;;;;;;;;5078842;28;20565;-52
2020/12/11 08:41:31;;;;;;;4.70;2.40;;;;;;;;;;5094698;28;20183;-52
2020/12/11 08:43:58;;;;;;;3.63;2.85;;;;;;;;;;5119420;28;20172;-52
2020/12/11 08:46:57;;;;;;;2.75;2.45;;;;;;;;;;5119071;28;20196;-52
2020/12/11 08:51:37;;;;;;;2.45;2.20;;;;;;;;;;5120055;28;20591;-52
2020/12/11 08:54:06;;;;;;;3.15;2.20;;;;;;;;;;5119731;28;20161;-52
2020/12/11 08:56:32;;;;;;;2.42;2.22;;;;;;;;;;5119851;28;20169;-52
2020/12/11 08:58:58;;;;;;;2.53;2.33;;;;;;;;;;5119975;28;20172;-52
2020/12/11 09:01:24;;;;;;;3.33;2.03;;;;;;;;;;5119990;28;20175;-52
2020/12/11 09:03:50;;;;;;;4.03;2.15;;;;;;;;;;5119936;28;20177;-52
2020/12/11 09:06:16;;;;;;;2.83;2.05;;;;;;;;;;5119236;28;20192;-52
2020/12/11 09:08:42;;;;;;;2.50;2.30;;;;;;;;;;5119501;28;20170;-52
2020/12/11 09:11:08;;;;;;;2.40;2.20;;;;;;;;;;5115000;28;20181;-52
2020/12/11 09:13:34;;;;;;;2.45;2.10;;;;;;;;;;5098165;28;20245;-52
2020/12/11 09:16:00;;;;;;;2.83;2.10;;;;;;;;;;5098076;28;20173;-52
2020/12/11 09:18:26;;;;;;;2.40;2.20;;;;;;;;;;5098111;28;20559;-52
2020/12/11 09:20:52;;;;;;;3.42;2.28;;;;;;;;;;5078663;28;20195;-52
2020/12/11 09:23:18;;;;;;;2.22;2.03;;;;;;;;;;5078714;28;20190;-52
2020/12/11 09:25:44;;;;;;;2.53;2.33;;;;;;;;;;5078427;28;20185;-52
2020/12/11 09:28:12;;;;;;;2.15;2.05;;;;;;;;;;5078514;28;20173;-52
2020/12/11 09:30:39;;;;;;;2.47;2.28;;;;;;;;;;5087141;28;20319;-52
2020/12/11 09:33:13;;;;;;;2.10;1.90;;;;;;;;;;5098814;28;20184;-52
2020/12/11 09:35:39;;;;;;;2.33;2.13;;;;;;;;;;5080955;28;20181;-52
2020/12/11 09:38:05;;;;;;;2.10;1.83;;;;;;;;;;5092690;28;20186;-52
2020/12/11 09:40:47;;;;;;;2.22;2.08;;;;;;;;;;5098123;28;20319;-52
2020/12/11 09:46:08;;;;;;;2.28;2.05;;;;;;;;;;5079656;28;20183;-52
2020/12/11 09:56:36;;;;;;;2.20;2.00;;;;;;;;;;5085451;28;20196;-52
2020/12/11 09:59:07;;;;;;;2.33;2.00;;;;;;;;;;5097565;28;20182;-52
2020/12/11 10:04:11;;;;;;;2.53;2.00;;;;;;;;;;5097238;28;20217;-52
2020/12/11 10:06:37;;;;;;;3.25;2.30;;;;;;;;;;5109689;28;20197;-52
2020/12/11 10:09:03;;;;;;;4.32;2.83;;;;;;;;;;5087113;28;20206;-52
2020/12/11 10:11:29;;;;;;;7.10;2.50;;;;;;;;;;5086638;28;20173;-52
2020/12/11 10:14:13;;;;;;;3.42;2.70;;;;;;;;;;5097006;28;20174;-52
2020/12/11 10:16:39;;;;;;;2.95;2.28;;;;;;;;;;5097742;28;20166;-52
2020/12/11 10:19:05;;;;;;;2.70;2.42;;;;;;;;;;5098883;28;20196;-52
2020/12/11 10:21:31;;;;;;;3.33;2.47;;;;;;;;;;5118175;28;20177;-52
2020/12/11 10:23:57;;;;;;;6.10;2.92;;;;;;;;;;5104352;28;20461;-52
2020/12/11 10:26:24;;;;;;;3.45;1.98;;;;;;;;;;5096530;28;20625;-52
2020/12/11 10:28:51;;;;;;;3.53;2.53;;;;;;;;;;5085590;28;20215;-52
2020/12/11 10:31:17;;;;;;;7.03;2.55;;;;;;;;;;5077451;28;20158;-52
2020/12/11 10:33:45;;;;;;;2.30;2.10;;;;;;;;;;5080055;28;20198;-52
2020/12/11 10:36:11;;;;;;;4.68;2.45;;;;;;;;;;5096447;28;20338;-52
2020/12/11 10:38:37;;;;;;;4.80;2.40;;;;;;;;;;5097496;28;20446;-52
2020/12/11 10:41:03;;;;;;;3.67;2.33;;;;;;;;;;5082704;28;20253;-52
2020/12/11 10:43:29;;;;;;;3.58;1.92;;;;;;;;;;5084200;28;20178;-52
2020/12/11 10:45:55;;;;;;;2.65;2.15;;;;;;;;;;5095377;28;20557;-52
2020/12/11 10:48:21;;;;;;;3.15;2.17;;;;;;;;;;5097623;28;20197;-52
2020/12/11 10:50:47;;;;;;;3.38;2.17;;;;;;;;;;5092306;28;20537;-52
2020/12/11 10:53:13;;;;;;;3.20;2.50;;;;;;;;;;5097047;28;20248;-52
2020/12/11 10:55:39;;;;;;;4.75;2.85;;;;;;;;;;5095509;28;20177;-52
2020/12/11 10:58:05;;;;;;;4.60;2.40;;;;;;;;;;5097458;28;20215;-52
2020/12/11 11:00:30;;;;;;;2.92;2.35;;;;;;;;;;5097284;28;20170;-52
2020/12/11 11:02:56;;;;;;;5.47;2.45;;;;;;;;;;5097384;28;20211;-52
2020/12/11 11:05:22;;;;;;;2.58;2.38;;;;;;;;;;5095897;28;20189;-52
2020/12/11 11:07:48;;;;;;;4.05;2.40;;;;;;;;;;5097094;28;20236;-52
2020/12/11 11:10:17;;;;;;;2.63;2.42;;;;;;;;;;5097259;28;20170;-52
2020/12/11 11:12:49;;;;;;;2.65;2.22;;;;;;;;;;5097124;28;20203;-52
2020/12/11 11:15:40;;;;;;;3.08;2.17;;;;;;;;;;5095194;28;20229;-52
2020/12/11 11:18:16;;;;;;;6.72;2.25;;;;;;;;;;5096980;28;20521;-52
2020/12/11 11:29:07;;;;;;;4.38;2.15;;;;;;;;;;5083348;28;20495;-52
2020/12/11 11:31:33;;;;;;;4.03;2.65;;;;;;;;;;5077080;28;20178;-52
2020/12/11 11:34:01;;;;;;;2.13;1.90;;;;;;;;;;5078975;28;20216;-52
2020/12/11 11:36:28;;;;;;;3.28;2.50;;;;;;;;;;5095919;28;20261;-52
2020/12/11 11:38:54;;;;;;;3.72;2.33;;;;;;;;;;5096553;28;20568;-52
2020/12/11 11:46:33;;;;;;;4.03;2.00;;;;;;;;;;5095975;28;20668;-52
2020/12/11 11:48:59;;;;;;;2.67;2.20;;;;;;;;;;5089811;28;20178;-52
2020/12/11 11:51:36;;;;;;;3.28;2.63;;;;;;;;;;5076124;28;20530;-52
2020/12/11 11:54:02;;;;;;;2.67;2.00;;;;;;;;;;5082310;28;20507;-52
2020/12/11 11:56:28;;;;;;;2.30;2.10;;;;;;;;;;5096651;28;20545;-52
2020/12/11 11:58:54;;;;;;;4.00;2.58;;;;;;;;;;5096623;28;20166;-52
2020/12/11 12:01:20;;;;;;;3.92;2.28;;;;;;;;;;5096559;28;20177;-52
2020/12/11 12:03:46;;;;;;;2.60;2.10;;;;;;;;;;5086650;28;20295;-52
2020/12/11 12:06:12;;;;;;;3.67;2.38;;;;;;;;;;5095836;28;20441;-52
2020/12/11 12:08:38;;;;;;;2.88;2.00;;;;;;;;;;5096405;28;20166;-52
2020/12/11 12:11:04;;;;;;;2.63;2.28;;;;;;;;;;5096583;28;20174;-52
2020/12/11 12:13:30;;;;;;;3.83;2.13;;;;;;;;;;5094740;28;20158;-52
2020/12/11 12:15:57;;;;;;;3.10;2.55;;;;;;;;;;5074542;28;20183;-52
2020/12/11 12:18:23;;;;;;;3.92;2.05;;;;;;;;;;5095673;28;20173;-52
2020/12/11 12:21:18;;;;;;;2.33;2.13;;;;;;;;;;5082441;28;20189;-52
2020/12/11 12:29:09;;;;;;;2.40;2.15;;;;;;;;;;5096521;28;20536;-52
2020/12/11 12:31:42;;;;;;;2.47;2.28;;;;;;;;;;5095895;28;20170;-52
2020/12/11 12:39:31;;;;;;;2.55;2.35;;;;;;;;;;5075858;28;20221;-52
2020/12/11 12:44:41;;;;;;;2.30;2.10;;;;;;;;;;5099764;28;20223;-52
2020/12/11 12:47:08;;;;;;;2.28;2.00;;;;;;;;;;5077125;28;20206;-52
2020/12/11 12:49:34;;;;;;;2.58;2.10;;;;;;;;;;5079540;28;20166;-52
2020/12/11 12:52:00;;;;;;;2.28;2.08;;;;;;;;;;5079483;28;20169;-52
2020/12/11 12:54:26;;;;;;;1.90;1.70;;;;;;;;;;5090372;28;20464;-52
2020/12/11 12:56:55;;;;;;;3.63;2.15;;;;;;;;;;5099860;28;20219;-52
2020/12/11 12:59:35;;;;;;;2.92;2.00;;;;;;;;;;5099754;28;20180;-52
2020/12/11 13:02:32;;;;;;;2.42;2.10;;;;;;;;;;5099648;28;20166;-52
2020/12/11 13:05:10;;;;;;;2.10;2.00;;;;;;;;;;5082663;28;20179;-52
2020/12/11 13:07:37;;;;;;;2.20;1.95;;;;;;;;;;5079176;28;20472;-52
2020/12/11 13:10:06;;;;;;;2.92;1.88;;;;;;;;;;5079153;28;20441;-52
2020/12/11 13:12:32;;;;;;;2.47;1.90;;;;;;;;;;5080532;28;20202;-52
2020/12/11 13:14:59;;;;;;;2.25;2.03;;;;;;;;;;5097133;28;20166;-52
2020/12/11 13:17:25;;;;;;;3.22;2.00;;;;;;;;;;5098653;28;20264;-52
2020/12/11 13:19:52;;;;;;;3.72;2.03;;;;;;;;;;5094167;28;20210;-52
2020/12/11 13:27:48;;;;;;;2.60;1.90;;;;;;;;;;5078958;28;20214;-52
2020/12/11 13:30:15;;;;;;;3.22;2.28;;;;;;;;;;5098606;28;20174;-52
2020/12/11 13:32:41;;;;;;;3.40;2.35;;;;;;;;;;5098135;28;20162;-52
2020/12/11 13:35:07;;;;;;;2.63;2.08;;;;;;;;;;5098016;28;20199;-52
2020/12/11 13:37:33;;;;;;;5.70;2.40;;;;;;;;;;5098225;28;20185;-52
2020/12/11 13:40:00;;;;;;;2.85;2.45;;;;;;;;;;5098427;28;20166;-52
2020/12/11 13:42:26;;;;;;;2.30;2.10;;;;;;;;;;5100174;28;20234;-52
2020/12/11 13:44:52;;;;;;;8.77;2.55;;;;;;;;;;5096612;28;20178;-52
2020/12/11 13:47:18;;;;;;;4.85;2.50;;;;;;;;;;5098070;28;20209;-52
2020/12/11 13:49:44;;;;;;;3.08;2.25;;;;;;;;;;5098390;28;20166;-52
2020/12/11 13:52:10;;;;;;;3.67;2.10;;;;;;;;;;5097831;28;20178;-52
2020/12/11 13:54:36;;;;;;;5.30;2.45;;;;;;;;;;5083652;28;20181;-52
2020/12/11 13:57:02;;;;;;;6.65;2.58;;;;;;;;;;5084809;28;20518;-52
2020/12/11 13:59:31;;;;;;;3.83;2.45;;;;;;;;;;5094672;28;20549;-52
2020/12/11 14:01:57;;;;;;;3.03;2.45;;;;;;;;;;5080921;28;20231;-52
2020/12/11 14:04:23;;;;;;;2.92;2.25;;;;;;;;;;5097251;28;20178;-52
2020/12/11 14:06:50;;;;;;;4.57;2.35;;;;;;;;;;5097984;28;20233;-52
2020/12/11 14:09:16;;;;;;;62.85;17.95;;;;;;;;;;5097404;28;20215;-52
2020/12/11 14:11:42;;;;;;;100.03;24.48;;;;;;;;;;5082351;28;20177;-52
2020/12/11 14:14:08;;;;;;;83.47;22.70;;;;;;;;;;5096167;28;20180;-52
2020/12/11 14:16:51;;;;;;;83.15;22.50;;;;;;;;;;5097548;28;20176;-52
2020/12/11 14:19:49;;;;;;;75.35;19.13;;;;;;;;;;5097989;28;20223;-52
2020/12/11 14:24:45;;;;;;;58.90;17.15;;;;;;;;;;5096829;28;20196;-52
2020/12/11 14:27:11;;;;;;;57.33;17.13;;;;;;;;;;5097711;28;20462;-52
2020/12/11 14:29:37;;;;;;;56.92;16.83;;;;;;;;;;5097925;28;20249;-52
2020/12/11 14:32:06;;;;;;;62.00;17.35;;;;;;;;;;5106628;28;20261;-52
2020/12/11 14:34:32;;;;;;;63.78;17.10;;;;;;;;;;5096374;28;20461;-52
2020/12/11 14:36:58;;;;;;;55.53;16.65;;;;;;;;;;5097131;28;20181;-52
2020/12/11 14:39:24;;;;;;;61.80;16.15;;;;;;;;;;5098343;28;20232;-52
2020/12/11 14:41:50;;;;;;;53.75;15.20;;;;;;;;;;5094290;28;20219;-52
2020/12/11 14:44:16;;;;;;;44.63;14.90;;;;;;;;;;5084740;28;20204;-52
2020/12/11 14:46:42;;;;;;;40.40;12.68;;;;;;;;;;5096755;28;20233;-52
2020/12/11 14:49:08;;;;;;;47.47;14.85;;;;;;;;;;5096320;28;20174;-51
2020/12/11 14:51:36;;;;;;;42.67;14.63;;;;;;;;;;5083677;28;20278;-52
2020/12/11 14:54:02;;;;;;;43.38;13.55;;;;;;;;;;5096450;28;20586;-51
2020/12/11 14:56:28;;;;;;;44.50;13.85;;;;;;;;;;5097448;28;20569;-51
2020/12/11 14:58:54;;;;;;;45.63;13.27;;;;;;;;;;5097117;28;20176;-51
2020/12/11 15:01:27;;;;;;;40.65;12.30;;;;;;;;;;5097359;28;20193;-51
2020/12/11 15:03:53;;;;;;;37.35;11.93;;;;;;;;;;5092490;28;20426;-51
2020/12/11 15:06:19;;;;;;;33.53;12.10;;;;;;;;;;5096744;28;20199;-51
2020/12/11 15:08:45;;;;;;;36.08;12.80;;;;;;;;;;5096959;28;20186;-51
2020/12/11 15:11:12;;;;;;;30.30;11.55;;;;;;;;;;5096139;28;20541;-51
2020/12/11 15:13:38;;;;;;;32.30;12.30;;;;;;;;;;5093630;28;20181;-51
2020/12/11 15:16:04;;;;;;;37.05;11.73;;;;;;;;;;5074362;28;20431;-51
2020/12/11 15:18:30;;;;;;;34.83;12.57;;;;;;;;;;5075583;28;20219;-51
2020/12/11 15:20:56;;;;;;;34.78;10.80;;;;;;;;;;5076409;28;20163;-51
2020/12/11 15:23:22;;;;;;;30.85;10.38;;;;;;;;;;5076449;28;20261;-51
2020/12/11 15:25:48;;;;;;;32.30;11.32;;;;;;;;;;5096237;28;20245;-51
2020/12/11 15:28:14;;;;;;;33.03;12.18;;;;;;;;;;5096674;28;20280;-51
2020/12/11 15:30:40;;;;;;;27.77;10.57;;;;;;;;;;5095972;28;20253;-51
2020/12/11 15:33:06;;;;;;;24.65;10.73;;;;;;;;;;5076677;28;20181;-51
2020/12/11 15:35:32;;;;;;;30.00;10.23;;;;;;;;;;5094038;28;20241;-51